sensor_id;sensor_type;location;lat;lon;timestamp;temperature;humidity
26342;DHT22;14054;50.108;8.640;2024-02-16T00:00:12;12.00;99.90
26342;DHT22;14054;50.108;8.640;2024-02-16T00:02:39;11.90;99.90
26342;DHT22;14054;50.108;8.640;2024-02-16T00:05:06;11.90;99.90
26342;DHT22;14054;50.108;8.640;2024-02-16T00:07:33;11.90;99.90
26342;DHT22;14054;50.108;8.640;2024-02-16T00:09:58;11.80;99.90
26342;DHT22;14054;50.108;8.640;2024-02-16T00:12:24;11.80;99.90
26342;DHT22;14054;50.108;8.640;2024-02-16T00:14:49;11.80;99.90
26342;DHT22;14054;50.108;8.640;2024-02-16T00:17:15;11.80;99.90
26342;DHT22;14054;50.108;8.640;2024-02-16T00:19:40;11.80;99.90
26342;DHT22;14054;50.108;8.640;2024-02-16T00:22:06;11.80;99.90
26342;DHT22;14054;50.108;8.640;2024-02-16T00:24:33;11.90;99.90
26342;DHT22;14054;50.108;8.640;2024-02-16T00:26:59;11.90;99.90
26342;DHT22;14054;50.108;8.640;2024-02-16T00:29:25;11.90;99.90
26342;DHT22;14054;50.108;8.640;2024-02-16T00:31:50;11.90;99.90
26342;DHT22;14054;50.108;8.640;2024-02-16T00:34:16;11.90;99.90
26342;DHT22;14054;50.108;8.640;2024-02-16T00:36:41;11.80;99.90
26342;DHT22;14054;50.108;8.640;2024-02-16T00:39:07;11.80;99.90
26342;DHT22;14054;50.108;8.640;2024-02-16T00:41:32;11.70;99.90
26342;DHT22;14054;50.108;8.640;2024-02-16T00:43:58;11.70;99.90
26342;DHT22;14054;50.108;8.640;2024-02-16T00:46:23;11.70;99.90
26342;DHT22;14054;50.108;8.640;2024-02-16T00:48:50;11.70;99.90
26342;DHT22;14054;50.108;8.640;2024-02-16T00:51:16;11.60;99.90
26342;DHT22;14054;50.108;8.640;2024-02-16T00:53:41;11.70;99.90
26342;DHT22;14054;50.108;8.640;2024-02-16T00:56:07;11.60;99.90
26342;DHT22;14054;50.108;8.640;2024-02-16T00:58:34;11.60;99.90
26342;DHT22;14054;50.108;8.640;2024-02-16T01:00:59;11.60;99.90
26342;DHT22;14054;50.108;8.640;2024-02-16T01:03:25;11.50;99.90
26342;DHT22;14054;50.108;8.640;2024-02-16T01:05:52;11.50;99.90
26342;DHT22;14054;50.108;8.640;2024-02-16T01:08:18;11.50;99.90
26342;DHT22;14054;50.108;8.640;2024-02-16T01:10:43;11.50;99.90
26342;DHT22;14054;50.108;8.640;2024-02-16T01:13:09;11.40;99.90
26342;DHT22;14054;50.108;8.640;2024-02-16T01:15:35;11.50;99.90
26342;DHT22;14054;50.108;8.640;2024-02-16T01:18:03;11.40;99.90
26342;DHT22;14054;50.108;8.640;2024-02-16T01:20:28;11.40;99.90
26342;DHT22;14054;50.108;8.640;2024-02-16T01:22:56;11.30;99.90
26342;DHT22;14054;50.108;8.640;2024-02-16T01:25:22;11.30;99.90
26342;DHT22;14054;50.108;8.640;2024-02-16T01:27:47;11.30;99.90
26342;DHT22;14054;50.108;8.640;2024-02-16T01:30:13;11.30;99.90
26342;DHT22;14054;50.108;8.640;2024-02-16T01:32:39;11.20;99.90
26342;DHT22;14054;50.108;8.640;2024-02-16T01:35:05;11.20;99.90
26342;DHT22;14054;50.108;8.640;2024-02-16T01:37:31;11.20;99.90
26342;DHT22;14054;50.108;8.640;2024-02-16T01:39:57;11.20;99.90
26342;DHT22;14054;50.108;8.640;2024-02-16T01:42:22;11.20;99.90
26342;DHT22;14054;50.108;8.640;2024-02-16T01:44:48;11.10;99.90
26342;DHT22;14054;50.108;8.640;2024-02-16T01:47:14;11.10;99.90
26342;DHT22;14054;50.108;8.640;2024-02-16T01:49:39;11.10;99.90
26342;DHT22;14054;50.108;8.640;2024-02-16T01:52:05;11.00;99.90
26342;DHT22;14054;50.108;8.640;2024-02-16T01:54:31;11.00;99.90
26342;DHT22;14054;50.108;8.640;2024-02-16T01:56:57;11.00;99.90
26342;DHT22;14054;50.108;8.640;2024-02-16T01:59:23;11.00;99.90
26342;DHT22;14054;50.108;8.640;2024-02-16T02:01:48;11.00;99.90
26342;DHT22;14054;50.108;8.640;2024-02-16T02:04:14;11.00;99.90
26342;DHT22;14054;50.108;8.640;2024-02-16T02:06:41;11.00;99.90
26342;DHT22;14054;50.108;8.640;2024-02-16T02:09:06;11.00;99.90
26342;DHT22;14054;50.108;8.640;2024-02-16T02:11:32;11.00;99.90
26342;DHT22;14054;50.108;8.640;2024-02-16T02:13:58;11.00;99.90
26342;DHT22;14054;50.108;8.640;2024-02-16T02:16:23;11.00;99.90
26342;DHT22;14054;50.108;8.640;2024-02-16T02:18:52;11.00;99.90
26342;DHT22;14054;50.108;8.640;2024-02-16T02:21:17;11.00;99.90
26342;DHT22;14054;50.108;8.640;2024-02-16T02:23:43;11.00;99.90
26342;DHT22;14054;50.108;8.640;2024-02-16T02:26:09;11.00;99.90
26342;DHT22;14054;50.108;8.640;2024-02-16T02:28:34;10.90;99.90
26342;DHT22;14054;50.108;8.640;2024-02-16T02:31:00;10.90;99.90
26342;DHT22;14054;50.108;8.640;2024-02-16T02:33:25;10.90;99.90
26342;DHT22;14054;50.108;8.640;2024-02-16T02:35:51;10.80;99.90
26342;DHT22;14054;50.108;8.640;2024-02-16T02:38:16;10.80;99.90
26342;DHT22;14054;50.108;8.640;2024-02-16T02:40:42;10.70;99.90
26342;DHT22;14054;50.108;8.640;2024-02-16T02:43:07;10.70;99.90
26342;DHT22;14054;50.108;8.640;2024-02-16T02:45:34;10.60;99.90
26342;DHT22;14054;50.108;8.640;2024-02-16T02:48:00;10.50;99.90
26342;DHT22;14054;50.108;8.640;2024-02-16T02:50:25;10.60;99.90
26342;DHT22;14054;50.108;8.640;2024-02-16T02:52:52;10.60;99.90
26342;DHT22;14054;50.108;8.640;2024-02-16T02:55:17;10.50;99.90
26342;DHT22;14054;50.108;8.640;2024-02-16T02:57:43;10.50;99.90
26342;DHT22;14054;50.108;8.640;2024-02-16T03:00:09;10.50;99.90
26342;DHT22;14054;50.108;8.640;2024-02-16T03:02:37;10.50;99.90
26342;DHT22;14054;50.108;8.640;2024-02-16T03:05:05;10.50;99.90
26342;DHT22;14054;50.108;8.640;2024-02-16T03:07:30;10.50;99.90
26342;DHT22;14054;50.108;8.640;2024-02-16T03:09:56;10.50;99.90
26342;DHT22;14054;50.108;8.640;2024-02-16T03:12:21;10.50;99.90
26342;DHT22;14054;50.108;8.640;2024-02-16T03:14:47;10.50;99.90
26342;DHT22;14054;50.108;8.640;2024-02-16T03:17:12;10.70;99.90
26342;DHT22;14054;50.108;8.640;2024-02-16T03:19:38;10.70;99.90
26342;DHT22;14054;50.108;8.640;2024-02-16T03:22:04;10.60;99.90
26342;DHT22;14054;50.108;8.640;2024-02-16T03:24:29;10.80;99.90
26342;DHT22;14054;50.108;8.640;2024-02-16T03:26:54;10.70;99.90
26342;DHT22;14054;50.108;8.640;2024-02-16T03:29:20;10.60;99.90
26342;DHT22;14054;50.108;8.640;2024-02-16T03:31:46;10.70;99.90
26342;DHT22;14054;50.108;8.640;2024-02-16T03:34:12;10.70;99.90
26342;DHT22;14054;50.108;8.640;2024-02-16T03:36:38;10.60;99.90
26342;DHT22;14054;50.108;8.640;2024-02-16T03:39:03;10.60;99.90
26342;DHT22;14054;50.108;8.640;2024-02-16T03:41:29;10.60;99.90
26342;DHT22;14054;50.108;8.640;2024-02-16T03:43:54;10.90;99.90
26342;DHT22;14054;50.108;8.640;2024-02-16T03:46:22;10.80;99.90
26342;DHT22;14054;50.108;8.640;2024-02-16T03:48:48;10.80;99.90
26342;DHT22;14054;50.108;8.640;2024-02-16T03:51:13;10.70;99.90
26342;DHT22;14054;50.108;8.640;2024-02-16T03:53:39;10.80;99.90
26342;DHT22;14054;50.108;8.640;2024-02-16T03:56:04;10.70;99.90
26342;DHT22;14054;50.108;8.640;2024-02-16T03:58:31;10.80;99.90
26342;DHT22;14054;50.108;8.640;2024-02-16T04:00:56;10.70;99.90
26342;DHT22;14054;50.108;8.640;2024-02-16T04:03:22;10.90;99.90
26342;DHT22;14054;50.108;8.640;2024-02-16T04:05:47;10.80;99.90
26342;DHT22;14054;50.108;8.640;2024-02-16T04:08:13;10.80;99.90
26342;DHT22;14054;50.108;8.640;2024-02-16T04:10:39;10.80;99.90
26342;DHT22;14054;50.108;8.640;2024-02-16T04:13:04;10.80;99.90
26342;DHT22;14054;50.108;8.640;2024-02-16T04:15:30;10.80;99.90
26342;DHT22;14054;50.108;8.640;2024-02-16T04:17:55;10.80;99.90
26342;DHT22;14054;50.108;8.640;2024-02-16T04:20:21;10.80;99.90
26342;DHT22;14054;50.108;8.640;2024-02-16T04:22:46;10.80;99.90
26342;DHT22;14054;50.108;8.640;2024-02-16T04:25:12;10.80;99.90
26342;DHT22;14054;50.108;8.640;2024-02-16T04:27:37;10.80;99.90
26342;DHT22;14054;50.108;8.640;2024-02-16T04:30:04;10.70;99.90
26342;DHT22;14054;50.108;8.640;2024-02-16T04:32:30;10.70;99.90
26342;DHT22;14054;50.108;8.640;2024-02-16T04:34:56;10.70;99.90
26342;DHT22;14054;50.108;8.640;2024-02-16T04:37:22;10.80;99.90
26342;DHT22;14054;50.108;8.640;2024-02-16T04:39:48;10.70;99.90
26342;DHT22;14054;50.108;8.640;2024-02-16T04:42:14;10.70;99.90
26342;DHT22;14054;50.108;8.640;2024-02-16T04:44:39;10.60;99.90
26342;DHT22;14054;50.108;8.640;2024-02-16T04:47:05;10.60;99.90
26342;DHT22;14054;50.108;8.640;2024-02-16T04:49:31;10.60;99.90
26342;DHT22;14054;50.108;8.640;2024-02-16T04:51:57;10.60;99.90
26342;DHT22;14054;50.108;8.640;2024-02-16T04:54:23;10.60;99.90
26342;DHT22;14054;50.108;8.640;2024-02-16T04:56:49;10.70;99.90
26342;DHT22;14054;50.108;8.640;2024-02-16T04:59:16;10.70;99.90
26342;DHT22;14054;50.108;8.640;2024-02-16T05:01:43;10.70;99.90
26342;DHT22;14054;50.108;8.640;2024-02-16T05:04:08;10.80;99.90
26342;DHT22;14054;50.108;8.640;2024-02-16T05:06:39;10.80;99.90
26342;DHT22;14054;50.108;8.640;2024-02-16T05:09:05;10.80;99.90
26342;DHT22;14054;50.108;8.640;2024-02-16T05:11:34;10.80;99.90
26342;DHT22;14054;50.108;8.640;2024-02-16T05:14:00;10.80;99.90
26342;DHT22;14054;50.108;8.640;2024-02-16T05:16:26;10.80;99.90
26342;DHT22;14054;50.108;8.640;2024-02-16T05:18:52;10.80;99.90
26342;DHT22;14054;50.108;8.640;2024-02-16T05:21:18;10.80;99.90
26342;DHT22;14054;50.108;8.640;2024-02-16T05:23:43;10.80;99.90
26342;DHT22;14054;50.108;8.640;2024-02-16T05:26:09;10.80;99.90
26342;DHT22;14054;50.108;8.640;2024-02-16T05:28:34;10.80;99.90
26342;DHT22;14054;50.108;8.640;2024-02-16T05:31:33;10.70;99.90
26342;DHT22;14054;50.108;8.640;2024-02-16T05:33:58;10.70;99.90
26342;DHT22;14054;50.108;8.640;2024-02-16T05:36:24;10.80;99.90
26342;DHT22;14054;50.108;8.640;2024-02-16T05:38:55;10.70;99.90
26342;DHT22;14054;50.108;8.640;2024-02-16T05:41:22;10.70;99.90
26342;DHT22;14054;50.108;8.640;2024-02-16T05:43:47;10.70;99.90
26342;DHT22;14054;50.108;8.640;2024-02-16T05:46:14;10.70;99.90
26342;DHT22;14054;50.108;8.640;2024-02-16T05:48:41;10.70;99.90
26342;DHT22;14054;50.108;8.640;2024-02-16T05:51:06;10.80;99.90
26342;DHT22;14054;50.108;8.640;2024-02-16T05:53:33;10.80;99.90
26342;DHT22;14054;50.108;8.640;2024-02-16T05:55:59;10.70;99.90
26342;DHT22;14054;50.108;8.640;2024-02-16T05:58:25;10.80;99.90
26342;DHT22;14054;50.108;8.640;2024-02-16T06:00:51;10.80;99.90
26342;DHT22;14054;50.108;8.640;2024-02-16T06:03:16;10.80;99.90
26342;DHT22;14054;50.108;8.640;2024-02-16T06:05:42;10.80;99.90
26342;DHT22;14054;50.108;8.640;2024-02-16T06:08:10;10.80;99.90
26342;DHT22;14054;50.108;8.640;2024-02-16T06:10:35;10.80;99.90
26342;DHT22;14054;50.108;8.640;2024-02-16T06:13:01;10.80;99.90
26342;DHT22;14054;50.108;8.640;2024-02-16T06:15:26;10.80;99.90
26342;DHT22;14054;50.108;8.640;2024-02-16T06:17:52;10.80;99.90
26342;DHT22;14054;50.108;8.640;2024-02-16T06:20:18;10.80;99.90
26342;DHT22;14054;50.108;8.640;2024-02-16T06:22:44;10.80;99.90
26342;DHT22;14054;50.108;8.640;2024-02-16T06:25:09;10.80;99.90
26342;DHT22;14054;50.108;8.640;2024-02-16T06:27:35;10.80;99.90
26342;DHT22;14054;50.108;8.640;2024-02-16T06:30:02;10.80;99.90
26342;DHT22;14054;50.108;8.640;2024-02-16T06:32:29;10.80;99.90
26342;DHT22;14054;50.108;8.640;2024-02-16T06:34:56;10.80;99.90
26342;DHT22;14054;50.108;8.640;2024-02-16T06:37:22;10.80;99.90
26342;DHT22;14054;50.108;8.640;2024-02-16T06:39:48;10.70;99.90
26342;DHT22;14054;50.108;8.640;2024-02-16T06:42:13;10.80;99.90
26342;DHT22;14054;50.108;8.640;2024-02-16T06:44:39;10.70;99.90
26342;DHT22;14054;50.108;8.640;2024-02-16T06:47:05;10.70;99.90
26342;DHT22;14054;50.108;8.640;2024-02-16T06:49:31;10.70;99.90
26342;DHT22;14054;50.108;8.640;2024-02-16T06:51:56;10.70;99.90
26342;DHT22;14054;50.108;8.640;2024-02-16T06:54:22;10.70;99.90
26342;DHT22;14054;50.108;8.640;2024-02-16T06:56:49;10.70;99.90
26342;DHT22;14054;50.108;8.640;2024-02-16T06:59:17;10.70;99.90
26342;DHT22;14054;50.108;8.640;2024-02-16T07:01:42;10.80;99.90
26342;DHT22;14054;50.108;8.640;2024-02-16T07:04:08;10.90;99.90
26342;DHT22;14054;50.108;8.640;2024-02-16T07:06:34;10.90;99.90
26342;DHT22;14054;50.108;8.640;2024-02-16T07:09:00;10.90;99.90
26342;DHT22;14054;50.108;8.640;2024-02-16T07:11:26;11.00;99.90
26342;DHT22;14054;50.108;8.640;2024-02-16T07:13:51;11.00;99.90
26342;DHT22;14054;50.108;8.640;2024-02-16T07:16:17;11.00;99.90
26342;DHT22;14054;50.108;8.640;2024-02-16T07:18:44;11.10;99.90
26342;DHT22;14054;50.108;8.640;2024-02-16T07:21:09;11.10;99.90
26342;DHT22;14054;50.108;8.640;2024-02-16T07:23:35;11.10;99.90
26342;DHT22;14054;50.108;8.640;2024-02-16T07:26:01;11.20;99.90
26342;DHT22;14054;50.108;8.640;2024-02-16T07:28:27;11.20;99.90
26342;DHT22;14054;50.108;8.640;2024-02-16T07:30:54;11.20;99.90
26342;DHT22;14054;50.108;8.640;2024-02-16T07:33:20;11.30;99.90
26342;DHT22;14054;50.108;8.640;2024-02-16T07:35:46;11.20;99.90
26342;DHT22;14054;50.108;8.640;2024-02-16T07:38:11;11.30;99.90
26342;DHT22;14054;50.108;8.640;2024-02-16T07:40:37;11.30;99.90
26342;DHT22;14054;50.108;8.640;2024-02-16T07:43:03;11.30;99.90
26342;DHT22;14054;50.108;8.640;2024-02-16T07:45:28;11.30;99.90
26342;DHT22;14054;50.108;8.640;2024-02-16T07:47:54;11.40;99.90
26342;DHT22;14054;50.108;8.640;2024-02-16T07:50:21;11.50;99.90
26342;DHT22;14054;50.108;8.640;2024-02-16T07:52:47;11.60;99.90
26342;DHT22;14054;50.108;8.640;2024-02-16T07:55:12;11.70;99.90
26342;DHT22;14054;50.108;8.640;2024-02-16T07:57:38;11.70;99.90
26342;DHT22;14054;50.108;8.640;2024-02-16T08:00:05;11.80;99.90
26342;DHT22;14054;50.108;8.640;2024-02-16T08:02:31;11.80;99.90
26342;DHT22;14054;50.108;8.640;2024-02-16T08:04:58;11.90;99.90
26342;DHT22;14054;50.108;8.640;2024-02-16T08:07:23;11.90;99.90
26342;DHT22;14054;50.108;8.640;2024-02-16T08:09:49;11.90;99.90
26342;DHT22;14054;50.108;8.640;2024-02-16T08:12:15;11.90;99.90
26342;DHT22;14054;50.108;8.640;2024-02-16T08:14:42;11.90;99.90
26342;DHT22;14054;50.108;8.640;2024-02-16T08:17:08;11.90;99.90
26342;DHT22;14054;50.108;8.640;2024-02-16T08:19:35;11.90;99.90
26342;DHT22;14054;50.108;8.640;2024-02-16T08:22:05;12.00;99.90
26342;DHT22;14054;50.108;8.640;2024-02-16T08:24:34;12.00;99.90
26342;DHT22;14054;50.108;8.640;2024-02-16T08:27:00;12.00;99.90
26342;DHT22;14054;50.108;8.640;2024-02-16T08:29:26;12.10;99.90
26342;DHT22;14054;50.108;8.640;2024-02-16T08:31:52;12.10;99.90
26342;DHT22;14054;50.108;8.640;2024-02-16T08:34:18;12.10;99.90
26342;DHT22;14054;50.108;8.640;2024-02-16T08:36:44;12.20;99.90
26342;DHT22;14054;50.108;8.640;2024-02-16T08:39:10;12.20;99.90
26342;DHT22;14054;50.108;8.640;2024-02-16T08:41:37;12.20;99.90
26342;DHT22;14054;50.108;8.640;2024-02-16T08:44:03;12.20;99.90
26342;DHT22;14054;50.108;8.640;2024-02-16T08:46:29;12.30;99.90
26342;DHT22;14054;50.108;8.640;2024-02-16T08:48:55;12.30;99.90
26342;DHT22;14054;50.108;8.640;2024-02-16T08:51:20;12.30;99.90
26342;DHT22;14054;50.108;8.640;2024-02-16T08:53:46;12.30;99.90
26342;DHT22;14054;50.108;8.640;2024-02-16T08:56:12;12.30;99.90
26342;DHT22;14054;50.108;8.640;2024-02-16T08:58:37;12.40;99.90
26342;DHT22;14054;50.108;8.640;2024-02-16T09:01:03;12.30;99.90
26342;DHT22;14054;50.108;8.640;2024-02-16T09:03:29;12.40;99.90
26342;DHT22;14054;50.108;8.640;2024-02-16T09:05:58;12.30;99.90
26342;DHT22;14054;50.108;8.640;2024-02-16T09:08:23;12.40;99.90
26342;DHT22;14054;50.108;8.640;2024-02-16T09:10:50;12.40;99.90
26342;DHT22;14054;50.108;8.640;2024-02-16T09:13:16;12.40;99.90
26342;DHT22;14054;50.108;8.640;2024-02-16T09:15:41;12.40;99.90
26342;DHT22;14054;50.108;8.640;2024-02-16T09:18:07;12.40;99.90
26342;DHT22;14054;50.108;8.640;2024-02-16T09:20:32;12.50;99.90
26342;DHT22;14054;50.108;8.640;2024-02-16T09:22:58;12.50;99.90
26342;DHT22;14054;50.108;8.640;2024-02-16T09:25:23;12.60;99.90
26342;DHT22;14054;50.108;8.640;2024-02-16T09:27:50;12.60;99.90
26342;DHT22;14054;50.108;8.640;2024-02-16T09:30:15;12.70;99.90
26342;DHT22;14054;50.108;8.640;2024-02-16T09:32:41;12.70;99.90
26342;DHT22;14054;50.108;8.640;2024-02-16T09:35:08;12.70;99.90
26342;DHT22;14054;50.108;8.640;2024-02-16T09:37:35;12.80;99.90
26342;DHT22;14054;50.108;8.640;2024-02-16T09:40:01;12.90;99.90
26342;DHT22;14054;50.108;8.640;2024-02-16T09:42:29;13.00;99.90
26342;DHT22;14054;50.108;8.640;2024-02-16T09:44:54;13.10;99.90
26342;DHT22;14054;50.108;8.640;2024-02-16T09:47:21;13.10;99.90
26342;DHT22;14054;50.108;8.640;2024-02-16T09:49:48;13.30;99.90
26342;DHT22;14054;50.108;8.640;2024-02-16T09:52:14;13.40;99.90
26342;DHT22;14054;50.108;8.640;2024-02-16T09:54:39;13.40;99.90
26342;DHT22;14054;50.108;8.640;2024-02-16T09:57:05;13.60;99.90
26342;DHT22;14054;50.108;8.640;2024-02-16T09:59:31;13.70;99.90
26342;DHT22;14054;50.108;8.640;2024-02-16T10:02:04;13.80;99.90
26342;DHT22;14054;50.108;8.640;2024-02-16T10:04:32;13.90;99.90
26342;DHT22;14054;50.108;8.640;2024-02-16T10:06:58;14.10;99.90
26342;DHT22;14054;50.108;8.640;2024-02-16T10:09:28;14.30;99.90
26342;DHT22;14054;50.108;8.640;2024-02-16T10:11:58;14.20;99.90
26342;DHT22;14054;50.108;8.640;2024-02-16T10:14:23;14.40;99.90
26342;DHT22;14054;50.108;8.640;2024-02-16T10:17:04;14.40;99.90
26342;DHT22;14054;50.108;8.640;2024-02-16T10:19:31;14.40;99.90
26342;DHT22;14054;50.108;8.640;2024-02-16T10:22:10;14.50;99.90
26342;DHT22;14054;50.108;8.640;2024-02-16T10:24:36;14.50;99.90
26342;DHT22;14054;50.108;8.640;2024-02-16T10:27:13;14.30;99.90
26342;DHT22;14054;50.108;8.640;2024-02-16T10:29:40;14.50;99.90
26342;DHT22;14054;50.108;8.640;2024-02-16T10:32:06;14.40;99.90
26342;DHT22;14054;50.108;8.640;2024-02-16T10:34:32;14.40;99.90
26342;DHT22;14054;50.108;8.640;2024-02-16T10:36:59;14.50;99.90
26342;DHT22;14054;50.108;8.640;2024-02-16T10:39:25;14.50;99.90
26342;DHT22;14054;50.108;8.640;2024-02-16T10:41:52;14.50;99.90
26342;DHT22;14054;50.108;8.640;2024-02-16T10:44:18;14.30;99.90
26342;DHT22;14054;50.108;8.640;2024-02-16T10:46:44;14.40;99.90
26342;DHT22;14054;50.108;8.640;2024-02-16T10:49:09;14.30;99.90
26342;DHT22;14054;50.108;8.640;2024-02-16T10:51:41;14.30;99.90
26342;DHT22;14054;50.108;8.640;2024-02-16T10:54:09;14.20;99.90
26342;DHT22;14054;50.108;8.640;2024-02-16T10:56:36;14.20;99.90
26342;DHT22;14054;50.108;8.640;2024-02-16T10:59:09;14.20;99.90
26342;DHT22;14054;50.108;8.640;2024-02-16T11:01:41;14.20;99.90
26342;DHT22;14054;50.108;8.640;2024-02-16T11:04:12;14.20;99.90
26342;DHT22;14054;50.108;8.640;2024-02-16T11:06:49;14.30;99.90
26342;DHT22;14054;50.108;8.640;2024-02-16T11:09:33;14.30;99.90
26342;DHT22;14054;50.108;8.640;2024-02-16T11:12:01;14.20;99.90
26342;DHT22;14054;50.108;8.640;2024-02-16T11:14:45;14.20;99.90
26342;DHT22;14054;50.108;8.640;2024-02-16T11:17:15;14.30;99.90
26342;DHT22;14054;50.108;8.640;2024-02-16T11:19:45;14.30;99.90
26342;DHT22;14054;50.108;8.640;2024-02-16T11:22:11;14.30;99.90
26342;DHT22;14054;50.108;8.640;2024-02-16T11:24:44;14.30;99.90
26342;DHT22;14054;50.108;8.640;2024-02-16T11:27:10;14.20;99.90
26342;DHT22;14054;50.108;8.640;2024-02-16T11:29:37;14.10;99.90
26342;DHT22;14054;50.108;8.640;2024-02-16T11:32:04;14.10;99.90
26342;DHT22;14054;50.108;8.640;2024-02-16T11:34:31;14.20;99.90
26342;DHT22;14054;50.108;8.640;2024-02-16T11:36:58;14.20;99.90
26342;DHT22;14054;50.108;8.640;2024-02-16T11:39:24;14.30;99.90
26342;DHT22;14054;50.108;8.640;2024-02-16T11:42:01;14.30;99.90
26342;DHT22;14054;50.108;8.640;2024-02-16T11:44:31;14.50;99.90
26342;DHT22;14054;50.108;8.640;2024-02-16T11:47:00;14.60;99.90
26342;DHT22;14054;50.108;8.640;2024-02-16T11:49:30;14.80;99.90
26342;DHT22;14054;50.108;8.640;2024-02-16T11:51:56;15.00;99.90
26342;DHT22;14054;50.108;8.640;2024-02-16T11:54:24;15.30;99.90
26342;DHT22;14054;50.108;8.640;2024-02-16T11:56:50;15.50;99.90
26342;DHT22;14054;50.108;8.640;2024-02-16T11:59:17;15.60;99.90
26342;DHT22;14054;50.108;8.640;2024-02-16T12:04:25;15.60;99.90
26342;DHT22;14054;50.108;8.640;2024-02-16T12:06:52;15.90;99.90
26342;DHT22;14054;50.108;8.640;2024-02-16T12:09:18;16.10;99.90
26342;DHT22;14054;50.108;8.640;2024-02-16T12:11:44;16.00;99.90
26342;DHT22;14054;50.108;8.640;2024-02-16T12:14:10;16.00;99.90
26342;DHT22;14054;50.108;8.640;2024-02-16T12:16:37;15.80;99.90
26342;DHT22;14054;50.108;8.640;2024-02-16T12:19:06;15.60;99.90
26342;DHT22;14054;50.108;8.640;2024-02-16T12:21:31;15.40;99.90
26342;DHT22;14054;50.108;8.640;2024-02-16T12:23:57;15.40;99.90
26342;DHT22;14054;50.108;8.640;2024-02-16T12:26:22;15.30;99.90
26342;DHT22;14054;50.108;8.640;2024-02-16T12:28:48;15.30;99.90
26342;DHT22;14054;50.108;8.640;2024-02-16T12:31:21;15.30;99.90
26342;DHT22;14054;50.108;8.640;2024-02-16T12:33:47;15.30;99.90
26342;DHT22;14054;50.108;8.640;2024-02-16T12:36:13;15.30;99.90
26342;DHT22;14054;50.108;8.640;2024-02-16T12:38:38;15.50;99.90
26342;DHT22;14054;50.108;8.640;2024-02-16T12:41:04;15.60;99.90
26342;DHT22;14054;50.108;8.640;2024-02-16T12:43:29;15.60;99.90
26342;DHT22;14054;50.108;8.640;2024-02-16T12:45:55;15.70;99.90
26342;DHT22;14054;50.108;8.640;2024-02-16T12:48:21;15.80;99.90
26342;DHT22;14054;50.108;8.640;2024-02-16T12:50:47;15.80;99.90
26342;DHT22;14054;50.108;8.640;2024-02-16T12:53:14;16.00;99.90
26342;DHT22;14054;50.108;8.640;2024-02-16T12:55:40;15.90;99.90
26342;DHT22;14054;50.108;8.640;2024-02-16T12:58:06;16.10;99.90
26342;DHT22;14054;50.108;8.640;2024-02-16T13:00:31;16.30;99.90
26342;DHT22;14054;50.108;8.640;2024-02-16T13:02:57;16.60;99.90
26342;DHT22;14054;50.108;8.640;2024-02-16T13:05:22;16.70;99.90
26342;DHT22;14054;50.108;8.640;2024-02-16T13:07:47;17.40;99.90
26342;DHT22;14054;50.108;8.640;2024-02-16T13:10:13;19.80;99.90
26342;DHT22;14054;50.108;8.640;2024-02-16T13:12:40;21.40;97.80
26342;DHT22;14054;50.108;8.640;2024-02-16T13:15:08;20.40;96.20
26342;DHT22;14054;50.108;8.640;2024-02-16T13:17:33;19.40;97.70
26342;DHT22;14054;50.108;8.640;2024-02-16T13:20:00;19.20;98.40
26342;DHT22;14054;50.108;8.640;2024-02-16T13:22:33;19.00;98.90
26342;DHT22;14054;50.108;8.640;2024-02-16T13:24:59;18.60;99.40
26342;DHT22;14054;50.108;8.640;2024-02-16T13:27:24;18.20;99.90
26342;DHT22;14054;50.108;8.640;2024-02-16T13:29:50;17.70;99.90
26342;DHT22;14054;50.108;8.640;2024-02-16T13:32:15;17.40;99.90
26342;DHT22;14054;50.108;8.640;2024-02-16T13:34:41;17.20;99.90
26342;DHT22;14054;50.108;8.640;2024-02-16T13:37:06;17.00;99.90
26342;DHT22;14054;50.108;8.640;2024-02-16T13:39:32;16.70;99.90
26342;DHT22;14054;50.108;8.640;2024-02-16T13:41:57;16.60;99.90
26342;DHT22;14054;50.108;8.640;2024-02-16T13:44:23;16.70;99.90
26342;DHT22;14054;50.108;8.640;2024-02-16T13:46:49;16.70;99.90
26342;DHT22;14054;50.108;8.640;2024-02-16T13:49:15;16.70;99.90
26342;DHT22;14054;50.108;8.640;2024-02-16T13:51:41;16.70;99.90
26342;DHT22;14054;50.108;8.640;2024-02-16T13:54:07;16.70;99.90
26342;DHT22;14054;50.108;8.640;2024-02-16T13:56:33;16.60;99.90
26342;DHT22;14054;50.108;8.640;2024-02-16T13:59:01;16.60;99.90
26342;DHT22;14054;50.108;8.640;2024-02-16T14:01:27;16.60;99.90
26342;DHT22;14054;50.108;8.640;2024-02-16T14:03:54;16.50;99.90
26342;DHT22;14054;50.108;8.640;2024-02-16T14:06:20;16.50;99.90
26342;DHT22;14054;50.108;8.640;2024-02-16T14:08:46;16.60;99.90
26342;DHT22;14054;50.108;8.640;2024-02-16T14:11:13;16.60;99.90
26342;DHT22;14054;50.108;8.640;2024-02-16T14:13:38;16.60;99.90
26342;DHT22;14054;50.108;8.640;2024-02-16T14:16:05;16.60;99.90
26342;DHT22;14054;50.108;8.640;2024-02-16T14:18:30;16.60;99.90
26342;DHT22;14054;50.108;8.640;2024-02-16T14:20:56;16.60;99.90
26342;DHT22;14054;50.108;8.640;2024-02-16T14:23:21;16.40;99.90
26342;DHT22;14054;50.108;8.640;2024-02-16T14:25:47;16.40;99.90
26342;DHT22;14054;50.108;8.640;2024-02-16T14:28:12;16.30;99.90
26342;DHT22;14054;50.108;8.640;2024-02-16T14:30:38;16.30;99.90
26342;DHT22;14054;50.108;8.640;2024-02-16T14:33:05;16.20;99.90
26342;DHT22;14054;50.108;8.640;2024-02-16T14:35:30;16.10;99.90
26342;DHT22;14054;50.108;8.640;2024-02-16T14:37:57;16.00;99.90
26342;DHT22;14054;50.108;8.640;2024-02-16T14:40:24;16.00;99.90
26342;DHT22;14054;50.108;8.640;2024-02-16T14:42:51;16.00;99.90
26342;DHT22;14054;50.108;8.640;2024-02-16T14:45:16;15.90;99.90
26342;DHT22;14054;50.108;8.640;2024-02-16T14:47:49;16.00;99.90
26342;DHT22;14054;50.108;8.640;2024-02-16T14:50:15;16.00;99.90
26342;DHT22;14054;50.108;8.640;2024-02-16T14:52:44;16.00;99.90
26342;DHT22;14054;50.108;8.640;2024-02-16T14:55:11;16.00;99.90
26342;DHT22;14054;50.108;8.640;2024-02-16T14:57:42;16.00;99.90
26342;DHT22;14054;50.108;8.640;2024-02-16T15:00:10;16.00;99.90
26342;DHT22;14054;50.108;8.640;2024-02-16T15:02:36;15.90;99.90
26342;DHT22;14054;50.108;8.640;2024-02-16T15:05:05;15.90;99.90
26342;DHT22;14054;50.108;8.640;2024-02-16T15:07:31;15.90;99.90
26342;DHT22;14054;50.108;8.640;2024-02-16T15:09:57;15.80;99.90
26342;DHT22;14054;50.108;8.640;2024-02-16T15:12:22;15.80;99.90
26342;DHT22;14054;50.108;8.640;2024-02-16T15:14:50;15.70;99.90
26342;DHT22;14054;50.108;8.640;2024-02-16T15:17:15;15.70;99.90
26342;DHT22;14054;50.108;8.640;2024-02-16T15:19:41;15.60;99.90
26342;DHT22;14054;50.108;8.640;2024-02-16T15:22:07;15.70;99.90
26342;DHT22;14054;50.108;8.640;2024-02-16T15:24:33;15.60;99.90
26342;DHT22;14054;50.108;8.640;2024-02-16T15:26:59;15.50;99.90